sensor_id;sensor_type;location;lat;lon;timestamp;P1;durP1;ratioP1;P2;durP2;ratioP2
36137;SDS011;22194;50.046;21.954;2022-08-11T00:02:25;14.30;;;5.00;;
36137;SDS011;22194;50.046;21.954;2022-08-11T00:05:06;16.40;;;5.60;;
36137;SDS011;22194;50.046;21.954;2022-08-11T00:07:48;15.30;;;4.90;;
36137;SDS011;22194;50.046;21.954;2022-08-11T00:10:26;17.10;;;5.40;;
36137;SDS011;22194;50.046;21.954;2022-08-11T00:12:56;11.50;;;4.60;;
36137;SDS011;22194;50.046;21.954;2022-08-11T00:15:40;11.00;;;4.50;;
36137;SDS011;22194;50.046;21.954;2022-08-11T00:18:10;13.50;;;4.40;;
36137;SDS011;22194;50.046;21.954;2022-08-11T00:20:40;14.90;;;4.70;;
36137;SDS011;22194;50.046;21.954;2022-08-11T00:23:15;11.90;;;4.30;;
36137;SDS011;22194;50.046;21.954;2022-08-11T00:25:47;11.90;;;4.90;;
36137;SDS011;22194;50.046;21.954;2022-08-11T00:28:25;13.10;;;5.20;;
36137;SDS011;22194;50.046;21.954;2022-08-11T00:31:02;11.40;;;4.60;;
36137;SDS011;22194;50.046;21.954;2022-08-11T00:36:13;14.90;;;5.50;;
36137;SDS011;22194;50.046;21.954;2022-08-11T00:38:49;11.10;;;4.90;;
36137;SDS011;22194;50.046;21.954;2022-08-11T00:41:28;10.40;;;4.50;;
36137;SDS011;22194;50.046;21.954;2022-08-11T00:46:41;10.40;;;4.60;;
36137;SDS011;22194;50.046;21.954;2022-08-11T01:21:16;15.60;;;5.30;;
36137;SDS011;22194;50.046;21.954;2022-08-11T01:27:22;16.70;;;5.90;;
36137;SDS011;22194;50.046;21.954;2022-08-11T01:33:24;12.40;;;4.80;;
36137;SDS011;22194;50.046;21.954;2022-08-11T01:39:48;10.10;;;4.30;;
36137;SDS011;22194;50.046;21.954;2022-08-11T01:46:15;15.50;;;4.50;;
36137;SDS011;22194;50.046;21.954;2022-08-11T01:49:02;11.40;;;4.40;;
36137;SDS011;22194;50.046;21.954;2022-08-11T02:08:26;11.10;;;4.40;;
36137;SDS011;22194;50.046;21.954;2022-08-11T02:11:18;13.20;;;4.90;;
36137;SDS011;22194;50.046;21.954;2022-08-11T02:16:47;15.60;;;6.00;;
36137;SDS011;22194;50.046;21.954;2022-08-11T02:19:49;14.10;;;5.10;;
36137;SDS011;22194;50.046;21.954;2022-08-11T02:28:29;11.40;;;4.60;;
36137;SDS011;22194;50.046;21.954;2022-08-11T02:34:50;11.00;;;4.50;;
36137;SDS011;22194;50.046;21.954;2022-08-11T03:08:20;11.50;;;4.40;;
36137;SDS011;22194;50.046;21.954;2022-08-11T03:11:00;13.10;;;5.00;;
36137;SDS011;22194;50.046;21.954;2022-08-11T03:17:01;11.80;;;4.60;;
36137;SDS011;22194;50.046;21.954;2022-08-11T03:19:44;10.30;;;4.60;;
36137;SDS011;22194;50.046;21.954;2022-08-11T03:22:31;16.20;;;4.90;;
36137;SDS011;22194;50.046;21.954;2022-08-11T03:25:11;10.40;;;4.40;;
36137;SDS011;22194;50.046;21.954;2022-08-11T03:27:47;13.50;;;4.60;;
36137;SDS011;22194;50.046;21.954;2022-08-11T03:30:22;12.10;;;4.90;;
36137;SDS011;22194;50.046;21.954;2022-08-11T03:39:44;10.50;;;4.70;;
36137;SDS011;22194;50.046;21.954;2022-08-11T03:42:40;14.40;;;4.40;;
36137;SDS011;22194;50.046;21.954;2022-08-11T03:45:34;9.30;;;4.50;;
36137;SDS011;22194;50.046;21.954;2022-08-11T03:51:28;13.20;;;5.00;;
36137;SDS011;22194;50.046;21.954;2022-08-11T03:54:28;12.90;;;5.20;;
36137;SDS011;22194;50.046;21.954;2022-08-11T04:12:20;14.10;;;5.00;;
36137;SDS011;22194;50.046;21.954;2022-08-11T04:33:11;14.00;;;5.40;;
36137;SDS011;22194;50.046;21.954;2022-08-11T04:58:41;14.70;;;6.10;;
36137;SDS011;22194;50.046;21.954;2022-08-11T05:12:52;18.80;;;6.10;;
36137;SDS011;22194;50.046;21.954;2022-08-11T05:15:30;19.00;;;5.80;;
36137;SDS011;22194;50.046;21.954;2022-08-11T05:18:27;20.20;;;6.20;;
36137;SDS011;22194;50.046;21.954;2022-08-11T05:21:15;21.80;;;6.10;;
36137;SDS011;22194;50.046;21.954;2022-08-11T05:24:32;19.90;;;6.50;;
36137;SDS011;22194;50.046;21.954;2022-08-11T05:28:05;23.20;;;7.00;;
36137;SDS011;22194;50.046;21.954;2022-08-11T05:30:57;19.80;;;7.00;;
36137;SDS011;22194;50.046;21.954;2022-08-11T05:33:48;23.20;;;7.90;;
36137;SDS011;22194;50.046;21.954;2022-08-11T05:36:44;24.00;;;8.00;;
36137;SDS011;22194;50.046;21.954;2022-08-11T05:39:21;19.60;;;7.20;;
36137;SDS011;22194;50.046;21.954;2022-08-11T05:44:58;20.50;;;7.10;;
36137;SDS011;22194;50.046;21.954;2022-08-11T05:47:49;22.50;;;7.60;;
36137;SDS011;22194;50.046;21.954;2022-08-11T05:50:36;22.00;;;7.50;;
36137;SDS011;22194;50.046;21.954;2022-08-11T05:53:24;22.60;;;7.90;;
36137;SDS011;22194;50.046;21.954;2022-08-11T05:56:12;21.50;;;7.70;;
36137;SDS011;22194;50.046;21.954;2022-08-11T05:58:51;22.50;;;8.20;;
36137;SDS011;22194;50.046;21.954;2022-08-11T06:01:21;23.10;;;7.90;;
36137;SDS011;22194;50.046;21.954;2022-08-11T06:03:50;15.30;;;6.00;;
36137;SDS011;22194;50.046;21.954;2022-08-11T06:06:53;16.90;;;5.90;;
36137;SDS011;22194;50.046;21.954;2022-08-11T06:09:31;16.30;;;6.00;;
36137;SDS011;22194;50.046;21.954;2022-08-11T06:12:06;20.90;;;6.00;;
36137;SDS011;22194;50.046;21.954;2022-08-11T06:14:42;17.60;;;5.80;;
36137;SDS011;22194;50.046;21.954;2022-08-11T06:17:12;13.60;;;5.70;;
36137;SDS011;22194;50.046;21.954;2022-08-11T06:19:41;15.80;;;5.60;;
36137;SDS011;22194;50.046;21.954;2022-08-11T06:22:18;14.80;;;5.80;;
36137;SDS011;22194;50.046;21.954;2022-08-11T06:24:52;16.60;;;5.70;;
36137;SDS011;22194;50.046;21.954;2022-08-11T06:27:31;14.60;;;5.40;;
36137;SDS011;22194;50.046;21.954;2022-08-11T06:30:02;15.20;;;6.10;;
36137;SDS011;22194;50.046;21.954;2022-08-11T06:32:45;16.00;;;4.90;;
36137;SDS011;22194;50.046;21.954;2022-08-11T06:35:34;13.00;;;5.90;;
36137;SDS011;22194;50.046;21.954;2022-08-11T06:41:00;15.30;;;5.20;;
36137;SDS011;22194;50.046;21.954;2022-08-11T06:44:05;16.00;;;5.50;;
36137;SDS011;22194;50.046;21.954;2022-08-11T06:46:35;11.70;;;4.60;;
36137;SDS011;22194;50.046;21.954;2022-08-11T06:49:08;15.00;;;5.10;;
36137;SDS011;22194;50.046;21.954;2022-08-11T06:52:04;15.20;;;5.10;;
36137;SDS011;22194;50.046;21.954;2022-08-11T06:55:00;14.70;;;5.70;;
36137;SDS011;22194;50.046;21.954;2022-08-11T06:57:36;15.40;;;5.10;;
36137;SDS011;22194;50.046;21.954;2022-08-11T07:00:24;16.20;;;5.40;;
36137;SDS011;22194;50.046;21.954;2022-08-11T07:03:06;17.40;;;5.00;;
36137;SDS011;22194;50.046;21.954;2022-08-11T07:05:55;15.70;;;5.30;;
36137;SDS011;22194;50.046;21.954;2022-08-11T07:08:37;17.40;;;5.70;;
36137;SDS011;22194;50.046;21.954;2022-08-11T07:14:35;15.50;;;5.00;;
36137;SDS011;22194;50.046;21.954;2022-08-11T07:17:27;14.20;;;3.80;;
36137;SDS011;22194;50.046;21.954;2022-08-11T07:19:58;11.40;;;4.20;;
36137;SDS011;22194;50.046;21.954;2022-08-11T07:22:49;12.60;;;4.80;;
36137;SDS011;22194;50.046;21.954;2022-08-11T07:25:40;8.40;;;3.90;;
36137;SDS011;22194;50.046;21.954;2022-08-11T07:28:29;12.90;;;4.20;;
36137;SDS011;22194;50.046;21.954;2022-08-11T07:31:20;12.40;;;4.30;;
36137;SDS011;22194;50.046;21.954;2022-08-11T07:34:12;13.20;;;4.40;;
36137;SDS011;22194;50.046;21.954;2022-08-11T07:36:49;17.70;;;5.10;;
36137;SDS011;22194;50.046;21.954;2022-08-11T07:39:21;13.40;;;4.20;;
36137;SDS011;22194;50.046;21.954;2022-08-11T07:41:55;14.10;;;3.80;;
36137;SDS011;22194;50.046;21.954;2022-08-11T07:44:25;12.40;;;4.40;;
36137;SDS011;22194;50.046;21.954;2022-08-11T07:47:01;18.90;;;4.30;;
36137;SDS011;22194;50.046;21.954;2022-08-11T07:49:48;8.60;;;3.80;;
36137;SDS011;22194;50.046;21.954;2022-08-11T07:52:39;10.90;;;3.80;;
36137;SDS011;22194;50.046;21.954;2022-08-11T07:55:11;13.30;;;4.80;;
36137;SDS011;22194;50.046;21.954;2022-08-11T07:57:43;18.90;;;4.50;;
36137;SDS011;22194;50.046;21.954;2022-08-11T08:00:55;12.40;;;4.00;;
36137;SDS011;22194;50.046;21.954;2022-08-11T08:03:49;10.00;;;3.40;;
36137;SDS011;22194;50.046;21.954;2022-08-11T08:06:36;6.30;;;3.00;;
36137;SDS011;22194;50.046;21.954;2022-08-11T08:09:24;8.70;;;3.20;;
36137;SDS011;22194;50.046;21.954;2022-08-11T08:12:10;10.10;;;3.00;;
36137;SDS011;22194;50.046;21.954;2022-08-11T08:14:58;5.10;;;2.70;;
36137;SDS011;22194;50.046;21.954;2022-08-11T08:17:46;5.00;;;2.70;;
36137;SDS011;22194;50.046;21.954;2022-08-11T08:20:47;8.40;;;2.80;;
36137;SDS011;22194;50.046;21.954;2022-08-11T08:23:18;9.40;;;2.80;;
36137;SDS011;22194;50.046;21.954;2022-08-11T08:26:02;9.80;;;3.10;;
36137;SDS011;22194;50.046;21.954;2022-08-11T08:28:53;6.30;;;2.90;;
36137;SDS011;22194;50.046;21.954;2022-08-11T08:31:43;5.30;;;2.50;;
36137;SDS011;22194;50.046;21.954;2022-08-11T08:34:15;4.20;;;2.20;;
36137;SDS011;22194;50.046;21.954;2022-08-11T08:36:44;5.70;;;2.40;;
36137;SDS011;22194;50.046;21.954;2022-08-11T08:39:19;4.90;;;2.50;;
36137;SDS011;22194;50.046;21.954;2022-08-11T08:41:50;5.80;;;2.40;;
36137;SDS011;22194;50.046;21.954;2022-08-11T08:44:21;4.50;;;2.20;;
36137;SDS011;22194;50.046;21.954;2022-08-11T08:47:17;2.90;;;2.30;;
36137;SDS011;22194;50.046;21.954;2022-08-11T08:50:10;5.80;;;2.00;;
36137;SDS011;22194;50.046;21.954;2022-08-11T08:53:19;4.60;;;2.30;;
36137;SDS011;22194;50.046;21.954;2022-08-11T08:55:38;2.40;;;2.00;;
36137;SDS011;22194;50.046;21.954;2022-08-11T08:58:12;5.30;;;1.80;;
36137;SDS011;22194;50.046;21.954;2022-08-11T09:00:43;5.40;;;2.10;;
36137;SDS011;22194;50.046;21.954;2022-08-11T09:03:13;6.20;;;2.40;;
36137;SDS011;22194;50.046;21.954;2022-08-11T09:06:01;4.60;;;2.10;;
36137;SDS011;22194;50.046;21.954;2022-08-11T09:08:30;4.20;;;2.00;;
36137;SDS011;22194;50.046;21.954;2022-08-11T09:11:00;2.00;;;1.60;;
36137;SDS011;22194;50.046;21.954;2022-08-11T09:13:49;2.80;;;1.90;;
36137;SDS011;22194;50.046;21.954;2022-08-11T09:16:35;5.40;;;2.30;;
36137;SDS011;22194;50.046;21.954;2022-08-11T09:19:06;6.60;;;2.10;;
36137;SDS011;22194;50.046;21.954;2022-08-11T09:21:34;8.00;;;2.20;;
36137;SDS011;22194;50.046;21.954;2022-08-11T09:24:17;6.40;;;2.10;;
36137;SDS011;22194;50.046;21.954;2022-08-11T09:27:05;4.60;;;2.30;;
36137;SDS011;22194;50.046;21.954;2022-08-11T09:29:35;6.10;;;2.00;;
36137;SDS011;22194;50.046;21.954;2022-08-11T09:32:05;6.00;;;2.00;;
36137;SDS011;22194;50.046;21.954;2022-08-11T09:34:34;8.10;;;2.10;;
36137;SDS011;22194;50.046;21.954;2022-08-11T09:37:03;6.10;;;2.10;;
36137;SDS011;22194;50.046;21.954;2022-08-11T09:40:23;6.10;;;2.10;;
36137;SDS011;22194;50.046;21.954;2022-08-11T09:43:18;8.20;;;2.70;;
36137;SDS011;22194;50.046;21.954;2022-08-11T09:46:05;4.20;;;2.50;;
36137;SDS011;22194;50.046;21.954;2022-08-11T09:48:37;8.70;;;2.60;;
36137;SDS011;22194;50.046;21.954;2022-08-11T09:51:07;6.40;;;2.80;;
36137;SDS011;22194;50.046;21.954;2022-08-11T09:53:40;4.70;;;2.70;;
36137;SDS011;22194;50.046;21.954;2022-08-11T09:56:29;11.40;;;2.80;;
36137;SDS011;22194;50.046;21.954;2022-08-11T09:59:17;9.20;;;2.90;;
36137;SDS011;22194;50.046;21.954;2022-08-11T10:01:49;12.10;;;2.70;;
36137;SDS011;22194;50.046;21.954;2022-08-11T10:04:24;6.10;;;2.60;;
36137;SDS011;22194;50.046;21.954;2022-08-11T10:06:59;5.00;;;2.60;;
36137;SDS011;22194;50.046;21.954;2022-08-11T10:09:36;9.30;;;2.90;;
36137;SDS011;22194;50.046;21.954;2022-08-11T10:12:05;12.70;;;2.80;;
36137;SDS011;22194;50.046;21.954;2022-08-11T10:17:27;4.00;;;2.10;;
36137;SDS011;22194;50.046;21.954;2022-08-11T10:19:59;4.20;;;2.40;;
36137;SDS011;22194;50.046;21.954;2022-08-11T10:22:33;12.20;;;3.00;;
36137;SDS011;22194;50.046;21.954;2022-08-11T10:25:20;7.60;;;2.60;;
36137;SDS011;22194;50.046;21.954;2022-08-11T10:28:07;5.60;;;2.90;;
36137;SDS011;22194;50.046;21.954;2022-08-11T10:30:56;16.40;;;3.00;;
36137;SDS011;22194;50.046;21.954;2022-08-11T10:33:43;12.50;;;2.50;;
36137;SDS011;22194;50.046;21.954;2022-08-11T10:36:30;8.10;;;2.40;;
36137;SDS011;22194;50.046;21.954;2022-08-11T10:39:02;9.20;;;3.00;;
36137;SDS011;22194;50.046;21.954;2022-08-11T10:41:32;6.30;;;2.30;;
36137;SDS011;22194;50.046;21.954;2022-08-11T10:44:36;6.50;;;2.30;;
36137;SDS011;22194;50.046;21.954;2022-08-11T10:47:11;7.10;;;2.10;;
36137;SDS011;22194;50.046;21.954;2022-08-11T10:50:00;3.70;;;1.80;;
36137;SDS011;22194;50.046;21.954;2022-08-11T10:52:49;6.80;;;2.50;;
36137;SDS011;22194;50.046;21.954;2022-08-11T10:55:36;7.20;;;2.30;;
36137;SDS011;22194;50.046;21.954;2022-08-11T10:58:25;4.00;;;2.20;;
36137;SDS011;22194;50.046;21.954;2022-08-11T11:01:12;4.40;;;2.00;;
36137;SDS011;22194;50.046;21.954;2022-08-11T11:03:42;5.90;;;2.20;;
36137;SDS011;22194;50.046;21.954;2022-08-11T11:11:47;3.90;;;2.40;;
36137;SDS011;22194;50.046;21.954;2022-08-11T11:14:39;5.40;;;2.70;;
36137;SDS011;22194;50.046;21.954;2022-08-11T11:18:11;5.50;;;2.70;;
36137;SDS011;22194;50.046;21.954;2022-08-11T11:20:38;7.00;;;2.80;;
36137;SDS011;22194;50.046;21.954;2022-08-11T11:31:34;5.30;;;2.60;;
36137;SDS011;22194;50.046;21.954;2022-08-11T11:36:47;8.30;;;2.80;;
36137;SDS011;22194;50.046;21.954;2022-08-11T11:39:22;6.10;;;2.60;;
36137;SDS011;22194;50.046;21.954;2022-08-11T11:41:52;8.00;;;2.60;;
36137;SDS011;22194;50.046;21.954;2022-08-11T11:44:29;9.90;;;3.40;;
36137;SDS011;22194;50.046;21.954;2022-08-11T11:46:59;11.70;;;4.10;;
36137;SDS011;22194;50.046;21.954;2022-08-11T11:49:28;11.50;;;3.80;;
36137;SDS011;22194;50.046;21.954;2022-08-11T11:51:58;10.50;;;3.20;;
36137;SDS011;22194;50.046;21.954;2022-08-11T11:54:28;6.80;;;2.80;;
36137;SDS011;22194;50.046;21.954;2022-08-11T11:56:58;7.40;;;3.40;;
36137;SDS011;22194;50.046;21.954;2022-08-11T11:59:48;9.10;;;2.80;;
36137;SDS011;22194;50.046;21.954;2022-08-11T12:02:36;6.10;;;2.70;;
36137;SDS011;22194;50.046;21.954;2022-08-11T12:05:07;5.00;;;2.80;;
36137;SDS011;22194;50.046;21.954;2022-08-11T12:07:36;6.10;;;2.90;;
36137;SDS011;22194;50.046;21.954;2022-08-11T12:10:43;5.10;;;2.80;;
36137;SDS011;22194;50.046;21.954;2022-08-11T12:13:17;4.70;;;2.80;;
36137;SDS011;22194;50.046;21.954;2022-08-11T12:16:03;7.00;;;2.70;;
36137;SDS011;22194;50.046;21.954;2022-08-11T12:18:53;3.50;;;2.50;;
36137;SDS011;22194;50.046;21.954;2022-08-11T12:21:23;6.50;;;3.00;;
36137;SDS011;22194;50.046;21.954;2022-08-11T12:23:53;6.60;;;2.90;;
36137;SDS011;22194;50.046;21.954;2022-08-11T12:26:41;7.00;;;2.50;;
36137;SDS011;22194;50.046;21.954;2022-08-11T12:29:36;8.20;;;3.10;;
36137;SDS011;22194;50.046;21.954;2022-08-11T12:32:10;7.30;;;2.90;;
36137;SDS011;22194;50.046;21.954;2022-08-11T12:34:38;7.00;;;3.40;;
36137;SDS011;22194;50.046;21.954;2022-08-11T12:37:06;8.30;;;2.70;;
36137;SDS011;22194;50.046;21.954;2022-08-11T12:39:45;7.10;;;3.20;;
36137;SDS011;22194;50.046;21.954;2022-08-11T12:42:53;6.10;;;2.70;;
36137;SDS011;22194;50.046;21.954;2022-08-11T12:46:06;6.80;;;2.60;;
36137;SDS011;22194;50.046;21.954;2022-08-11T12:48:40;6.20;;;2.60;;
36137;SDS011;22194;50.046;21.954;2022-08-11T12:51:35;3.50;;;2.50;;
36137;SDS011;22194;50.046;21.954;2022-08-11T12:57:41;5.50;;;2.50;;
36137;SDS011;22194;50.046;21.954;2022-08-11T13:00:31;10.00;;;2.70;;
36137;SDS011;22194;50.046;21.954;2022-08-11T13:03:18;6.00;;;3.00;;
36137;SDS011;22194;50.046;21.954;2022-08-11T13:06:06;9.90;;;3.20;;
36137;SDS011;22194;50.046;21.954;2022-08-11T13:08:35;4.80;;;2.60;;
36137;SDS011;22194;50.046;21.954;2022-08-11T13:11:06;7.00;;;2.60;;
36137;SDS011;22194;50.046;21.954;2022-08-11T13:14:14;10.00;;;2.80;;
36137;SDS011;22194;50.046;21.954;2022-08-11T13:16:43;7.30;;;2.60;;
36137;SDS011;22194;50.046;21.954;2022-08-11T13:19:31;3.60;;;2.50;;
36137;SDS011;22194;50.046;21.954;2022-08-11T13:22:01;4.80;;;2.70;;
36137;SDS011;22194;50.046;21.954;2022-08-11T13:24:34;5.70;;;2.80;;
36137;SDS011;22194;50.046;21.954;2022-08-11T13:27:02;5.70;;;2.50;;
36137;SDS011;22194;50.046;21.954;2022-08-11T13:29:31;7.10;;;2.70;;
36137;SDS011;22194;50.046;21.954;2022-08-11T13:31:59;7.30;;;2.70;;
36137;SDS011;22194;50.046;21.954;2022-08-11T13:34:27;5.20;;;2.20;;
36137;SDS011;22194;50.046;21.954;2022-08-11T13:36:58;6.90;;;2.40;;
36137;SDS011;22194;50.046;21.954;2022-08-11T13:39:29;10.60;;;3.00;;
36137;SDS011;22194;50.046;21.954;2022-08-11T13:41:59;7.10;;;2.90;;
36137;SDS011;22194;50.046;21.954;2022-08-11T13:44:29;5.30;;;2.50;;
36137;SDS011;22194;50.046;21.954;2022-08-11T13:47:01;4.70;;;2.70;;
36137;SDS011;22194;50.046;21.954;2022-08-11T13:49:31;6.60;;;2.70;;
36137;SDS011;22194;50.046;21.954;2022-08-11T13:52:02;6.90;;;2.70;;
36137;SDS011;22194;50.046;21.954;2022-08-11T13:54:34;7.20;;;2.80;;
36137;SDS011;22194;50.046;21.954;2022-08-11T13:57:05;6.10;;;2.90;;
36137;SDS011;22194;50.046;21.954;2022-08-11T13:59:54;27.30;;;4.70;;
36137;SDS011;22194;50.046;21.954;2022-08-11T14:02:40;6.70;;;2.70;;
36137;SDS011;22194;50.046;21.954;2022-08-11T14:05:11;7.80;;;2.80;;
36137;SDS011;22194;50.046;21.954;2022-08-11T14:07:48;5.40;;;3.00;;
36137;SDS011;22194;50.046;21.954;2022-08-11T14:10:19;6.50;;;3.00;;
36137;SDS011;22194;50.046;21.954;2022-08-11T14:15:45;5.50;;;3.10;;
36137;SDS011;22194;50.046;21.954;2022-08-11T14:18:17;7.80;;;3.20;;
36137;SDS011;22194;50.046;21.954;2022-08-11T14:20:51;3.40;;;2.70;;
36137;SDS011;22194;50.046;21.954;2022-08-11T14:23:41;5.00;;;2.80;;
36137;SDS011;22194;50.046;21.954;2022-08-11T14:26:13;9.20;;;3.40;;
36137;SDS011;22194;50.046;21.954;2022-08-11T14:29:06;9.60;;;3.60;;
36137;SDS011;22194;50.046;21.954;2022-08-11T14:31:38;9.70;;;3.70;;
36137;SDS011;22194;50.046;21.954;2022-08-11T14:34:12;11.90;;;3.50;;
36137;SDS011;22194;50.046;21.954;2022-08-11T14:36:42;12.20;;;3.60;;
36137;SDS011;22194;50.046;21.954;2022-08-11T14:39:14;9.00;;;3.10;;
36137;SDS011;22194;50.046;21.954;2022-08-11T14:41:48;8.60;;;3.30;;
36137;SDS011;22194;50.046;21.954;2022-08-11T14:44:41;6.80;;;3.30;;
36137;SDS011;22194;50.046;21.954;2022-08-11T14:47:51;12.20;;;3.30;;
36137;SDS011;22194;50.046;21.954;2022-08-11T14:50:22;9.00;;;3.70;;
36137;SDS011;22194;50.046;21.954;2022-08-11T14:52:54;10.60;;;3.20;;
36137;SDS011;22194;50.046;21.954;2022-08-11T14:55:25;12.00;;;4.00;;
36137;SDS011;22194;50.046;21.954;2022-08-11T14:58:15;8.40;;;2.90;;
36137;SDS011;22194;50.046;21.954;2022-08-11T15:00:44;6.90;;;2.90;;
36137;SDS011;22194;50.046;21.954;2022-08-11T15:03:13;8.40;;;3.10;;
36137;SDS011;22194;50.046;21.954;2022-08-11T15:05:52;8.90;;;3.20;;
36137;SDS011;22194;50.046;21.954;2022-08-11T15:08:26;7.40;;;3.10;;
36137;SDS011;22194;50.046;21.954;2022-08-11T15:11:16;12.20;;;3.60;;
36137;SDS011;22194;50.046;21.954;2022-08-11T15:14:04;13.40;;;3.30;;
36137;SDS011;22194;50.046;21.954;2022-08-11T15:16:39;9.60;;;3.40;;
36137;SDS011;22194;50.046;21.954;2022-08-11T15:19:27;7.70;;;3.30;;
36137;SDS011;22194;50.046;21.954;2022-08-11T15:22:08;9.50;;;3.50;;
36137;SDS011;22194;50.046;21.954;2022-08-11T15:24:58;13.40;;;4.50;;
36137;SDS011;22194;50.046;21.954;2022-08-11T15:30:16;10.90;;;4.10;;
36137;SDS011;22194;50.046;21.954;2022-08-11T15:33:03;11.60;;;4.40;;
36137;SDS011;22194;50.046;21.954;2022-08-11T15:35:52;8.80;;;3.60;;
36137;SDS011;22194;50.046;21.954;2022-08-11T15:38:41;9.80;;;3.80;;
36137;SDS011;22194;50.046;21.954;2022-08-11T15:41:14;9.00;;;3.80;;
36137;SDS011;22194;50.046;21.954;2022-08-11T15:44:05;10.20;;;3.70;;
36137;SDS011;22194;50.046;21.954;2022-08-11T15:47:15;10.90;;;4.10;;
36137;SDS011;22194;50.046;21.954;2022-08-11T15:49:46;7.00;;;3.10;;
36137;SDS011;22194;50.046;21.954;2022-08-11T15:52:42;8.20;;;3.60;;
36137;SDS011;22194;50.046;21.954;2022-08-11T15:55:14;12.30;;;4.50;;
36137;SDS011;22194;50.046;21.954;2022-08-11T15:57:44;18.50;;;4.10;;
36137;SDS011;22194;50.046;21.954;2022-08-11T16:00:34;9.70;;;3.40;;
36137;SDS011;22194;50.046;21.954;2022-08-11T16:03:32;7.40;;;4.20;;
36137;SDS011;22194;50.046;21.954;2022-08-11T16:06:36;16.10;;;4.90;;
36137;SDS011;22194;50.046;21.954;2022-08-11T16:09:23;15.10;;;4.40;;
36137;SDS011;22194;50.046;21.954;2022-08-11T16:12:19;11.90;;;4.30;;
36137;SDS011;22194;50.046;21.954;2022-08-11T16:14:50;12.70;;;4.20;;
36137;SDS011;22194;50.046;21.954;2022-08-11T16:17:47;11.00;;;4.10;;
36137;SDS011;22194;50.046;21.954;2022-08-11T16:20:19;7.90;;;3.60;;
36137;SDS011;22194;50.046;21.954;2022-08-11T16:22:50;11.10;;;4.10;;
36137;SDS011;22194;50.046;21.954;2022-08-11T16:25:31;10.90;;;4.00;;
36137;SDS011;22194;50.046;21.954;2022-08-11T16:28:23;11.00;;;4.00;;
36137;SDS011;22194;50.046;21.954;2022-08-11T16:30:53;14.30;;;4.80;;
36137;SDS011;22194;50.046;21.954;2022-08-11T16:33:23;15.40;;;4.70;;
36137;SDS011;22194;50.046;21.954;2022-08-11T16:36:12;11.10;;;4.10;;
36137;SDS011;22194;50.046;21.954;2022-08-11T16:39:01;9.40;;;3.90;;
36137;SDS011;22194;50.046;21.954;2022-08-11T16:41:31;11.60;;;4.20;;
36137;SDS011;22194;50.046;21.954;2022-08-11T16:44:19;10.00;;;4.20;;
36137;SDS011;22194;50.046;21.954;2022-08-11T16:47:09;12.60;;;4.40;;
36137;SDS011;22194;50.046;21.954;2022-08-11T16:49:44;13.40;;;4.10;;
36137;SDS011;22194;50.046;21.954;2022-08-11T16:52:20;12.10;;;4.50;;
36137;SDS011;22194;50.046;21.954;2022-08-11T16:54:50;9.50;;;4.10;;
36137;SDS011;22194;50.046;21.954;2022-08-11T16:57:22;12.50;;;4.30;;
36137;SDS011;22194;50.046;21.954;2022-08-11T17:00:15;14.40;;;4.90;;
36137;SDS011;22194;50.046;21.954;2022-08-11T17:05:33;13.50;;;4.40;;
36137;SDS011;22194;50.046;21.954;2022-08-11T17:08:31;11.70;;;4.30;;
36137;SDS011;22194;50.046;21.954;2022-08-11T17:11:25;10.80;;;4.90;;
36137;SDS011;22194;50.046;21.954;2022-08-11T17:14:15;13.80;;;4.90;;
36137;SDS011;22194;50.046;21.954;2022-08-11T17:17:04;12.90;;;5.10;;
36137;SDS011;22194;50.046;21.954;2022-08-11T17:19:47;11.60;;;5.20;;
36137;SDS011;22194;50.046;21.954;2022-08-11T17:22:38;13.20;;;5.00;;
36137;SDS011;22194;50.046;21.954;2022-08-11T17:25:27;11.30;;;4.60;;
36137;SDS011;22194;50.046;21.954;2022-08-11T17:28:18;14.00;;;5.10;;
36137;SDS011;22194;50.046;21.954;2022-08-11T17:30:52;24.40;;;5.30;;
36137;SDS011;22194;50.046;21.954;2022-08-11T17:33:50;12.40;;;4.50;;
36137;SDS011;22194;50.046;21.954;2022-08-11T17:36:38;10.90;;;4.60;;
36137;SDS011;22194;50.046;21.954;2022-08-11T17:39:12;10.60;;;4.50;;
36137;SDS011;22194;50.046;21.954;2022-08-11T17:41:41;12.00;;;4.40;;
36137;SDS011;22194;50.046;21.954;2022-08-11T17:44:29;10.90;;;4.60;;
36137;SDS011;22194;50.046;21.954;2022-08-11T17:47:18;7.40;;;4.10;;
36137;SDS011;22194;50.046;21.954;2022-08-11T17:50:05;10.00;;;4.50;;
36137;SDS011;22194;50.046;21.954;2022-08-11T17:52:45;13.20;;;4.50;;
36137;SDS011;22194;50.046;21.954;2022-08-11T17:55:32;10.20;;;5.00;;
36137;SDS011;22194;50.046;21.954;2022-08-11T17:58:21;13.80;;;4.20;;
36137;SDS011;22194;50.046;21.954;2022-08-11T18:01:09;9.30;;;4.50;;
36137;SDS011;22194;50.046;21.954;2022-08-11T18:03:39;10.80;;;4.60;;
36137;SDS011;22194;50.046;21.954;2022-08-11T18:06:19;8.80;;;4.20;;
36137;SDS011;22194;50.046;21.954;2022-08-11T18:09:02;6.90;;;4.30;;
36137;SDS011;22194;50.046;21.954;2022-08-11T18:11:50;7.60;;;4.30;;
36137;SDS011;22194;50.046;21.954;2022-08-11T18:14:40;7.90;;;4.20;;
36137;SDS011;22194;50.046;21.954;2022-08-11T18:17:31;10.60;;;4.10;;
36137;SDS011;22194;50.046;21.954;2022-08-11T18:20:18;13.10;;;4.50;;
36137;SDS011;22194;50.046;21.954;2022-08-11T18:23:07;7.70;;;3.90;;
36137;SDS011;22194;50.046;21.954;2022-08-11T18:26:15;9.60;;;4.70;;
36137;SDS011;22194;50.046;21.954;2022-08-11T18:29:05;9.30;;;4.10;;
36137;SDS011;22194;50.046;21.954;2022-08-11T18:31:53;8.20;;;4.40;;
36137;SDS011;22194;50.046;21.954;2022-08-11T18:34:49;11.10;;;4.40;;
36137;SDS011;22194;50.046;21.954;2022-08-11T18:37:42;17.90;;;4.80;;
36137;SDS011;22194;50.046;21.954;2022-08-11T18:40:31;13.20;;;5.10;;
36137;SDS011;22194;50.046;21.954;2022-08-11T18:43:21;9.00;;;4.70;;
36137;SDS011;22194;50.046;21.954;2022-08-11T18:46:10;10.50;;;4.50;;
36137;SDS011;22194;50.046;21.954;2022-08-11T18:49:02;9.60;;;4.70;;
36137;SDS011;22194;50.046;21.954;2022-08-11T18:52:14;9.10;;;4.30;;
36137;SDS011;22194;50.046;21.954;2022-08-11T18:55:03;11.00;;;4.80;;
36137;SDS011;22194;50.046;21.954;2022-08-11T18:57:54;9.60;;;4.50;;
36137;SDS011;22194;50.046;21.954;2022-08-11T19:00:42;12.10;;;4.60;;
36137;SDS011;22194;50.046;21.954;2022-08-11T19:03:31;9.80;;;5.00;;
36137;SDS011;22194;50.046;21.954;2022-08-11T19:06:21;11.30;;;4.90;;
36137;SDS011;22194;50.046;21.954;2022-08-11T19:09:11;8.90;;;4.40;;
36137;SDS011;22194;50.046;21.954;2022-08-11T19:11:59;13.20;;;5.30;;
36137;SDS011;22194;50.046;21.954;2022-08-11T19:14:47;10.90;;;4.90;;
36137;SDS011;22194;50.046;21.954;2022-08-11T19:17:37;9.70;;;4.50;;
36137;SDS011;22194;50.046;21.954;2022-08-11T19:20:27;12.30;;;4.70;;
36137;SDS011;22194;50.046;21.954;2022-08-11T19:23:17;11.90;;;4.80;;
36137;SDS011;22194;50.046;21.954;2022-08-11T19:28:57;13.20;;;4.60;;
36137;SDS011;22194;50.046;21.954;2022-08-11T19:32:07;11.00;;;4.70;;
36137;SDS011;22194;50.046;21.954;2022-08-11T19:34:57;9.40;;;4.70;;
36137;SDS011;22194;50.046;21.954;2022-08-11T19:37:46;10.00;;;4.90;;
36137;SDS011;22194;50.046;21.954;2022-08-11T19:40:35;16.80;;;5.90;;
36137;SDS011;22194;50.046;21.954;2022-08-11T19:43:24;12.60;;;5.70;;
36137;SDS011;22194;50.046;21.954;2022-08-11T19:46:17;13.80;;;5.70;;
36137;SDS011;22194;50.046;21.954;2022-08-11T19:49:08;15.10;;;6.50;;
36137;SDS011;22194;50.046;21.954;2022-08-11T19:51:56;13.90;;;6.60;;
36137;SDS011;22194;50.046;21.954;2022-08-11T19:54:45;17.60;;;7.50;;